createdAt,value
2022-08-26T00:01:56.733Z,20.96
2022-08-26T00:04:26.085Z,20.90
2022-08-26T00:06:55.672Z,20.86
2022-08-26T00:09:24.871Z,20.77
2022-08-26T00:11:54.307Z,20.70
2022-08-26T00:14:28.268Z,20.64
2022-08-26T00:16:58.035Z,20.53
2022-08-26T00:19:25.486Z,20.46
2022-08-26T00:21:52.942Z,20.43
2022-08-26T00:24:21.761Z,20.38
2022-08-26T00:26:50.082Z,20.36
2022-08-26T00:29:19.848Z,20.12
2022-08-26T00:31:49.772Z,20.20
2022-08-26T00:34:19.264Z,20.05
2022-08-26T00:36:51.836Z,20.12
2022-08-26T00:39:20.816Z,20.17
2022-08-26T00:41:48.661Z,20.18
2022-08-26T00:44:17.080Z,20.11
2022-08-26T00:46:48.569Z,20.06
2022-08-26T00:49:37.975Z,20.07
2022-08-26T00:52:11.866Z,19.98
2022-08-26T00:54:46.828Z,19.99
2022-08-26T00:57:18.428Z,19.99
2022-08-26T00:59:54.751Z,19.99
2022-08-26T01:02:24.198Z,19.96
2022-08-26T01:04:59.019Z,19.91
2022-08-26T01:07:30.001Z,19.93
2022-08-26T01:09:59.668Z,19.88
2022-08-26T01:12:32.021Z,19.87
2022-08-26T01:15:00.029Z,19.83
2022-08-26T01:17:27.841Z,19.87
2022-08-26T01:20:10.119Z,19.87
2022-08-26T01:22:56.644Z,19.80
2022-08-26T01:25:27.911Z,19.73
2022-08-26T01:28:00.311Z,19.66
2022-08-26T01:30:31.203Z,19.64
2022-08-26T01:33:03.151Z,19.56
2022-08-26T01:35:30.884Z,19.60
2022-08-26T01:38:00.219Z,19.60
2022-08-26T01:40:34.093Z,19.64
2022-08-26T01:43:03.468Z,19.63
2022-08-26T01:45:34.447Z,19.66
2022-08-26T01:48:07.849Z,19.64
2022-08-26T01:50:37.445Z,19.58
2022-08-26T01:53:09.452Z,19.58
2022-08-26T01:55:43.591Z,19.54
2022-08-26T01:58:18.479Z,19.52
2022-08-26T02:00:47.512Z,19.54
2022-08-26T02:03:18.931Z,19.50
2022-08-26T02:05:59.941Z,19.41
2022-08-26T02:08:32.067Z,19.41
2022-08-26T02:11:00.567Z,19.29
2022-08-26T02:13:31.351Z,19.10
2022-08-26T02:16:01.100Z,19.17
2022-08-26T02:18:33.118Z,19.31
2022-08-26T02:21:00.735Z,19.32
2022-08-26T02:23:28.908Z,19.32
2022-08-26T02:26:03.859Z,19.30
2022-08-26T02:28:38.700Z,19.31
2022-08-26T02:31:06.358Z,19.29
2022-08-26T02:33:35.804Z,19.30
2022-08-26T02:36:04.272Z,19.30
2022-08-26T02:38:32.603Z,19.31
2022-08-26T02:41:01.760Z,19.28
2022-08-26T02:43:32.874Z,19.33
2022-08-26T02:46:02.325Z,19.36
2022-08-26T02:48:30.377Z,19.22
2022-08-26T02:51:01.820Z,19.12
2022-08-26T02:53:32.003Z,19.20
2022-08-26T02:56:04.567Z,19.23
2022-08-26T02:58:32.483Z,19.07
2022-08-26T03:01:00.185Z,19.19
2022-08-26T03:03:29.841Z,19.26
2022-08-26T03:05:58.273Z,19.28
2022-08-26T03:08:25.800Z,19.16
2022-08-26T03:10:53.239Z,19.12
2022-08-26T03:13:20.958Z,19.03
2022-08-26T03:15:49.151Z,19.07
2022-08-26T03:18:16.586Z,19.10
2022-08-26T03:20:44.770Z,19.05
2022-08-26T03:23:13.087Z,19.12
2022-08-26T03:25:40.598Z,19.08
2022-08-26T03:28:09.652Z,19.10
2022-08-26T03:30:45.348Z,19.12
2022-08-26T03:33:14.626Z,19.19
2022-08-26T03:35:44.421Z,19.18
2022-08-26T03:38:11.962Z,19.25
2022-08-26T03:40:40.471Z,19.29
2022-08-26T03:43:10.089Z,19.43
2022-08-26T03:45:38.573Z,19.48
2022-08-26T03:48:06.918Z,19.58
2022-08-26T03:50:35.750Z,19.54
2022-08-26T03:53:04.211Z,19.45
2022-08-26T03:55:35.175Z,19.38
2022-08-26T03:58:02.677Z,19.32
2022-08-26T04:00:30.578Z,19.45
2022-08-26T04:02:58.439Z,19.34
2022-08-26T04:05:26.028Z,19.39
2022-08-26T04:07:55.927Z,19.40
2022-08-26T04:10:29.080Z,19.47
2022-08-26T04:13:06.186Z,19.31
2022-08-26T04:15:34.424Z,19.27
2022-08-26T04:18:01.881Z,19.24
2022-08-26T04:20:29.296Z,19.39
2022-08-26T04:22:57.051Z,19.25
2022-08-26T04:25:24.562Z,19.26
2022-08-26T04:27:52.302Z,19.35
2022-08-26T04:30:20.373Z,19.29
2022-08-26T04:32:49.663Z,19.33
2022-08-26T04:35:17.259Z,19.29
2022-08-26T04:37:45.020Z,19.28
2022-08-26T04:40:12.596Z,19.41
2022-08-26T04:42:40.183Z,19.45
2022-08-26T04:45:10.021Z,19.49
2022-08-26T04:47:38.223Z,19.52
2022-08-26T04:50:07.516Z,19.84
2022-08-26T04:52:36.622Z,19.94
2022-08-26T04:55:05.959Z,20.08
2022-08-26T04:57:34.184Z,19.95
2022-08-26T05:00:06.955Z,20.23
2022-08-26T05:02:34.566Z,20.09
2022-08-26T05:05:04.361Z,20.35
2022-08-26T05:07:31.890Z,20.40
2022-08-26T05:09:59.333Z,20.43
2022-08-26T05:12:29.098Z,20.63
2022-08-26T05:15:02.712Z,20.62
2022-08-26T05:17:31.392Z,20.74
2022-08-26T05:19:58.824Z,20.73
2022-08-26T05:22:26.429Z,20.80
2022-08-26T05:24:54.164Z,20.87
2022-08-26T05:27:21.623Z,21.01
2022-08-26T05:29:54.638Z,21.11
2022-08-26T05:32:22.429Z,21.13
2022-08-26T05:34:54.086Z,21.20
2022-08-26T05:37:22.140Z,21.40
2022-08-26T05:39:51.143Z,21.36
2022-08-26T05:42:19.903Z,21.37
2022-08-26T05:44:54.021Z,21.63
2022-08-26T05:47:24.543Z,21.55
2022-08-26T05:49:52.644Z,21.89
2022-08-26T05:52:20.501Z,21.94
2022-08-26T05:54:47.928Z,22.17
2022-08-26T05:57:16.078Z,22.36
2022-08-26T05:59:46.007Z,22.28
2022-08-26T06:02:13.512Z,22.43
2022-08-26T06:04:41.411Z,22.60
2022-08-26T06:07:11.546Z,22.67
2022-08-26T06:09:40.185Z,22.87
2022-08-26T06:12:07.995Z,23.04
2022-08-26T06:14:36.056Z,23.15
2022-08-26T06:17:03.608Z,23.17
2022-08-26T06:19:33.083Z,23.37
2022-08-26T06:22:23.575Z,23.48
2022-08-26T06:25:10.356Z,23.56
2022-08-26T06:27:37.760Z,23.83
2022-08-26T06:30:06.045Z,24.01
2022-08-26T06:32:33.867Z,24.10
2022-08-26T06:35:01.563Z,24.25
2022-08-26T06:37:29.513Z,24.44
2022-08-26T06:39:57.101Z,24.52
2022-08-26T06:42:25.152Z,24.70
2022-08-26T06:44:53.064Z,24.86
2022-08-26T06:47:20.709Z,25.00
2022-08-26T06:49:48.544Z,25.09
2022-08-26T06:52:22.923Z,25.21
2022-08-26T06:54:51.958Z,25.30
2022-08-26T06:57:20.856Z,25.41
2022-08-26T06:59:48.837Z,25.49
2022-08-26T07:02:19.486Z,25.57
2022-08-26T07:07:18.528Z,25.77
2022-08-26T07:09:52.628Z,25.84
2022-08-26T07:12:20.620Z,25.90
2022-08-26T07:14:48.500Z,25.93
2022-08-26T07:17:16.647Z,25.92
2022-08-26T07:19:44.155Z,25.95
2022-08-26T07:22:12.317Z,25.89
2022-08-26T07:24:42.369Z,25.97
2022-08-26T07:27:13.504Z,26.11
2022-08-26T07:29:43.446Z,26.20
2022-08-26T07:32:14.043Z,26.24
2022-08-26T07:34:42.631Z,26.36
2022-08-26T07:37:10.615Z,26.36
2022-08-26T07:39:38.516Z,26.01
2022-08-26T07:42:10.648Z,26.40
2022-08-26T07:44:39.737Z,26.63
2022-08-26T07:47:10.553Z,26.82
2022-08-26T07:49:55.997Z,26.95
2022-08-26T07:52:27.089Z,27.10
2022-08-26T07:55:00.250Z,27.21
2022-08-26T07:57:28.465Z,27.07
2022-08-26T07:59:56.721Z,27.26
2022-08-26T08:02:26.350Z,27.39
2022-08-26T08:04:55.451Z,27.46
2022-08-26T08:07:38.640Z,27.65
2022-08-26T08:10:15.048Z,27.81
2022-08-26T08:12:43.837Z,28.00
2022-08-26T08:15:15.481Z,28.03
2022-08-26T08:17:43.755Z,28.14
2022-08-26T08:20:13.828Z,28.30
2022-08-26T08:22:43.055Z,28.37
2022-08-26T08:25:12.160Z,28.59
2022-08-26T08:27:42.407Z,28.82
2022-08-26T08:30:13.830Z,28.83
2022-08-26T08:32:43.670Z,28.70
2022-08-26T08:35:14.587Z,28.97
2022-08-26T08:37:44.819Z,29.19
2022-08-26T08:40:18.223Z,29.23
2022-08-26T08:43:04.025Z,29.33
2022-08-26T08:45:47.126Z,29.45
2022-08-26T08:48:20.010Z,29.51
2022-08-26T08:50:53.891Z,29.61
2022-08-26T08:53:31.637Z,29.87
2022-08-26T08:56:23.728Z,29.55
2022-08-26T08:58:52.015Z,29.75
2022-08-26T09:01:45.725Z,29.62
2022-08-26T09:04:47.900Z,29.87
2022-08-26T09:07:36.579Z,30.06
2022-08-26T09:10:22.072Z,29.90
2022-08-26T09:12:51.144Z,30.04
2022-08-26T09:15:36.335Z,30.42
2022-08-26T09:18:31.619Z,30.33
2022-08-26T09:21:03.816Z,30.59
2022-08-26T09:23:34.084Z,30.71
2022-08-26T09:26:28.711Z,30.90
2022-08-26T09:29:03.469Z,30.91
2022-08-26T09:31:35.956Z,31.11
2022-08-26T09:34:24.482Z,31.00
2022-08-26T09:36:57.461Z,31.27
2022-08-26T09:39:25.753Z,31.11
2022-08-26T09:42:25.562Z,31.31
2022-08-26T09:45:03.603Z,31.37
2022-08-26T09:47:39.572Z,31.58
2022-08-26T09:50:29.302Z,30.97
2022-08-26T09:53:09.624Z,31.45
2022-08-26T09:55:43.297Z,31.04
2022-08-26T09:58:16.860Z,31.39
2022-08-26T10:00:58.508Z,31.45
2022-08-26T10:03:39.177Z,31.08
2022-08-26T10:06:07.949Z,31.26
2022-08-26T10:08:42.519Z,31.62
2022-08-26T10:11:21.962Z,31.64
2022-08-26T10:14:00.792Z,31.54
2022-08-26T10:16:54.460Z,31.69
2022-08-26T10:19:56.013Z,32.04
2022-08-26T10:22:26.275Z,31.72
2022-08-26T10:25:00.316Z,31.85
2022-08-26T10:27:36.153Z,32.22
2022-08-26T10:30:14.767Z,32.01
2022-08-26T10:32:49.181Z,31.85
2022-08-26T10:35:19.291Z,31.80
2022-08-26T10:37:56.025Z,31.88
2022-08-26T10:40:44.781Z,32.02
2022-08-26T10:43:25.984Z,31.73
2022-08-26T10:46:12.137Z,32.47
2022-08-26T10:48:53.613Z,32.51
2022-08-26T10:51:35.614Z,32.54
2022-08-26T10:54:13.232Z,32.47
2022-08-26T10:56:49.617Z,32.57
2022-08-26T10:59:48.431Z,32.80
2022-08-26T11:02:31.467Z,32.81
2022-08-26T11:05:05.784Z,32.81
2022-08-26T11:07:39.116Z,32.88
2022-08-26T11:10:09.465Z,33.03
2022-08-26T11:12:37.512Z,33.06
2022-08-26T11:15:24.571Z,32.69
2022-08-26T11:18:08.941Z,32.93
2022-08-26T11:20:45.110Z,32.82
2022-08-26T11:23:13.733Z,32.73
2022-08-26T11:25:57.141Z,32.83
2022-08-26T11:28:35.593Z,33.16
2022-08-26T11:31:05.602Z,32.69
2022-08-26T11:33:57.297Z,32.88
2022-08-26T11:36:49.161Z,33.31
2022-08-26T11:39:30.517Z,32.80
2022-08-26T11:42:15.995Z,32.93
2022-08-26T11:44:49.106Z,32.92
2022-08-26T11:47:26.875Z,33.17
2022-08-26T11:50:13.085Z,32.83
2022-08-26T11:52:40.631Z,32.36
2022-08-26T11:55:12.085Z,32.77
2022-08-26T11:57:46.983Z,32.90
2022-08-26T12:00:22.206Z,33.17
2022-08-26T12:02:52.422Z,33.05
2022-08-26T12:05:31.198Z,33.33
2022-08-26T12:08:08.852Z,32.35
2022-08-26T12:10:37.735Z,32.93
2022-08-26T12:13:07.684Z,32.57
2022-08-26T12:15:35.856Z,33.19
2022-08-26T12:18:18.227Z,33.31
2022-08-26T12:20:58.736Z,32.53
2022-08-26T12:23:35.215Z,33.04
2022-08-26T12:26:27.500Z,33.20
2022-08-26T12:29:19.781Z,33.27
2022-08-26T12:31:48.796Z,33.01
2022-08-26T12:34:18.555Z,33.48
2022-08-26T12:36:53.686Z,33.40
2022-08-26T12:39:29.745Z,33.22
2022-08-26T12:42:02.193Z,33.24
2022-08-26T12:44:37.745Z,33.52
2022-08-26T12:47:08.231Z,33.70
2022-08-26T12:49:39.396Z,33.65
2022-08-26T12:52:29.772Z,33.59
2022-08-26T12:55:00.888Z,33.56
2022-08-26T12:57:32.692Z,33.53
2022-08-26T13:00:28.439Z,33.39
2022-08-26T13:02:56.805Z,33.40
2022-08-26T13:05:33.576Z,33.28
2022-08-26T13:08:27.825Z,33.47
2022-08-26T13:11:05.374Z,33.35
2022-08-26T13:13:32.820Z,33.26
2022-08-26T13:16:01.033Z,33.24
2022-08-26T13:18:29.625Z,33.16
2022-08-26T13:20:59.261Z,33.01
2022-08-26T13:23:27.781Z,33.19
2022-08-26T13:25:55.228Z,33.16
2022-08-26T13:28:22.677Z,33.45
2022-08-26T13:30:50.479Z,33.14
2022-08-26T13:33:18.564Z,33.08
2022-08-26T13:35:46.013Z,33.19
2022-08-26T13:38:18.574Z,33.39
2022-08-26T13:41:02.680Z,33.46
2022-08-26T13:43:31.549Z,33.43
2022-08-26T13:45:59.045Z,33.42
2022-08-26T13:48:26.581Z,33.57
2022-08-26T13:50:54.341Z,33.55
2022-08-26T13:53:21.975Z,33.47
2022-08-26T13:55:49.562Z,33.32
2022-08-26T13:58:17.404Z,33.29
2022-08-26T14:00:44.923Z,33.43
2022-08-26T14:03:13.622Z,33.35
2022-08-26T14:05:41.369Z,33.48
2022-08-26T14:08:08.980Z,33.69
2022-08-26T14:10:36.916Z,33.81
2022-08-26T14:13:04.612Z,33.98
2022-08-26T14:15:37.736Z,33.89
2022-08-26T14:18:08.793Z,33.68
2022-08-26T14:20:38.201Z,33.90
2022-08-26T14:23:20.811Z,33.77
2022-08-26T14:25:48.405Z,33.59
2022-08-26T14:28:16.237Z,33.67
2022-08-26T14:30:53.672Z,33.65
2022-08-26T14:33:25.928Z,33.49
2022-08-26T14:36:13.615Z,33.30
2022-08-26T14:38:41.930Z,33.12
2022-08-26T14:41:10.147Z,33.48
2022-08-26T14:43:42.385Z,33.31
2022-08-26T14:46:10.159Z,33.31
2022-08-26T14:48:37.720Z,33.17
2022-08-26T14:51:05.469Z,33.21
2022-08-26T14:53:51.656Z,32.94
2022-08-26T14:56:19.264Z,33.34
2022-08-26T14:58:47.591Z,33.31
2022-08-26T15:01:15.242Z,33.36
2022-08-26T15:03:42.765Z,33.45
2022-08-26T15:06:13.900Z,32.99
2022-08-26T15:08:41.343Z,33.13
2022-08-26T15:11:08.812Z,33.09
2022-08-26T15:13:36.656Z,33.22
2022-08-26T15:16:04.448Z,33.30
2022-08-26T15:18:32.111Z,33.01
2022-08-26T15:20:59.933Z,32.85
2022-08-26T15:23:27.446Z,32.65
2022-08-26T15:25:55.548Z,32.78
2022-08-26T15:28:23.332Z,32.80
2022-08-26T15:30:51.150Z,32.96
2022-08-26T15:33:18.719Z,32.91
2022-08-26T15:35:46.502Z,32.82
2022-08-26T15:38:14.129Z,32.58
2022-08-26T15:40:42.175Z,32.59
2022-08-26T15:43:27.922Z,32.37
2022-08-26T15:45:56.766Z,32.28
2022-08-26T15:48:25.084Z,32.08
2022-08-26T15:50:55.981Z,31.87
2022-08-26T15:53:24.223Z,31.63
2022-08-26T15:55:55.017Z,31.57
2022-08-26T15:58:26.943Z,31.50
2022-08-26T16:00:56.176Z,31.34
2022-08-26T16:03:24.344Z,31.23
2022-08-26T16:05:52.240Z,31.13
2022-08-26T16:08:20.633Z,31.00
2022-08-26T16:10:50.774Z,30.97
2022-08-26T16:13:20.174Z,30.92
2022-08-26T16:15:48.518Z,30.78
2022-08-26T16:18:16.680Z,30.74
2022-08-26T16:21:12.644Z,30.69
2022-08-26T16:23:38.953Z,30.55
2022-08-26T16:26:14.042Z,30.62
2022-08-26T16:28:42.232Z,30.42
2022-08-26T16:31:11.708Z,30.39
2022-08-26T16:33:39.948Z,30.26
2022-08-26T16:36:08.959Z,30.18
2022-08-26T16:38:37.623Z,30.07
2022-08-26T16:41:06.020Z,29.99
2022-08-26T16:43:34.373Z,29.89
2022-08-26T16:46:01.948Z,29.78
2022-08-26T16:48:29.381Z,29.68
2022-08-26T16:50:57.159Z,29.57
2022-08-26T16:53:24.612Z,29.49
2022-08-26T16:55:52.192Z,29.38
2022-08-26T16:58:22.074Z,29.28
2022-08-26T17:00:49.729Z,29.11
2022-08-26T17:03:17.445Z,29.06
2022-08-26T17:05:45.124Z,28.96
2022-08-26T17:08:15.396Z,28.87
2022-08-26T17:10:55.128Z,28.79
2022-08-26T17:13:35.439Z,28.69
2022-08-26T17:16:09.380Z,28.61
2022-08-26T17:18:37.309Z,28.51
2022-08-26T17:21:08.180Z,28.43
2022-08-26T17:23:37.178Z,28.31
2022-08-26T17:26:05.467Z,28.20
2022-08-26T17:28:33.652Z,28.09
2022-08-26T17:31:01.542Z,28.02
2022-08-26T17:33:29.840Z,27.93
2022-08-26T17:35:57.740Z,27.81
2022-08-26T17:38:25.783Z,27.71
2022-08-26T17:40:53.543Z,27.55
2022-08-26T17:43:21.074Z,27.50
2022-08-26T17:45:48.662Z,27.39
2022-08-26T17:48:17.217Z,27.27
2022-08-26T17:50:45.509Z,27.17
2022-08-26T17:53:19.159Z,27.03
2022-08-26T17:55:48.128Z,26.87
2022-08-26T17:58:17.207Z,26.76
2022-08-26T18:00:50.388Z,26.66
2022-08-26T18:03:19.090Z,26.56
2022-08-26T18:05:51.868Z,26.48
2022-08-26T18:08:20.199Z,26.36
2022-08-26T18:10:47.913Z,26.29
2022-08-26T18:13:15.804Z,26.22
2022-08-26T18:15:47.443Z,26.10
2022-08-26T18:18:15.249Z,26.06
2022-08-26T18:20:44.543Z,25.93
2022-08-26T18:23:12.997Z,25.82
2022-08-26T18:25:41.884Z,25.83
2022-08-26T18:28:10.373Z,25.73
2022-08-26T18:30:38.059Z,25.61
2022-08-26T18:33:05.739Z,25.58
2022-08-26T18:35:39.296Z,25.54
2022-08-26T18:38:11.430Z,25.49
2022-08-26T18:40:44.589Z,25.45
2022-08-26T18:43:12.133Z,25.39
2022-08-26T18:45:39.880Z,25.40
2022-08-26T18:48:07.395Z,25.35
2022-08-26T18:50:39.766Z,25.26
2022-08-26T18:53:08.069Z,25.22
2022-08-26T18:55:35.540Z,25.16
2022-08-26T18:58:03.128Z,25.10
2022-08-26T19:00:31.600Z,25.01
2022-08-26T19:02:59.155Z,24.94
2022-08-26T19:05:28.200Z,24.87
2022-08-26T19:07:56.579Z,24.80
2022-08-26T19:10:24.797Z,24.70
2022-08-26T19:12:53.720Z,24.68
2022-08-26T19:15:23.127Z,24.56
2022-08-26T19:17:50.653Z,24.49
2022-08-26T19:20:18.273Z,24.47
2022-08-26T19:22:46.057Z,24.44
2022-08-26T19:25:13.981Z,24.40
2022-08-26T19:27:41.523Z,24.37
2022-08-26T19:30:10.016Z,24.24
2022-08-26T19:32:37.468Z,24.28
2022-08-26T19:35:06.032Z,24.19
2022-08-26T19:37:34.257Z,24.10
2022-08-26T19:40:02.135Z,24.02
2022-08-26T19:42:29.868Z,23.97
2022-08-26T19:45:24.924Z,23.84
2022-08-26T19:47:53.876Z,23.80
2022-08-26T19:50:22.744Z,23.71
2022-08-26T19:52:50.267Z,23.66
2022-08-26T19:55:20.817Z,23.61
2022-08-26T19:57:50.215Z,23.56
2022-08-26T20:00:22.070Z,23.47
2022-08-26T20:02:50.306Z,23.47
2022-08-26T20:05:20.538Z,23.34
2022-08-26T20:07:48.948Z,23.31
2022-08-26T20:10:21.038Z,23.31
2022-08-26T20:12:50.561Z,23.29
2022-08-26T20:15:21.053Z,23.21
2022-08-26T20:17:49.376Z,23.22
2022-08-26T20:20:35.575Z,23.14
2022-08-26T20:23:04.410Z,23.12
2022-08-26T20:25:33.234Z,23.12
2022-08-26T20:28:01.433Z,23.10
2022-08-26T20:30:29.297Z,22.99
2022-08-26T20:32:57.372Z,22.95
2022-08-26T20:35:25.105Z,22.89
2022-08-26T20:37:52.872Z,23.12
2022-08-26T20:40:21.317Z,23.30
2022-08-26T20:42:48.851Z,23.41
2022-08-26T20:45:16.792Z,23.47
2022-08-26T20:47:44.279Z,23.62
2022-08-26T20:50:11.836Z,23.59
2022-08-26T20:52:39.531Z,23.65
2022-08-26T20:55:07.296Z,23.74
2022-08-26T20:57:34.814Z,23.86
2022-08-26T21:00:03.960Z,23.96
2022-08-26T21:02:31.375Z,24.01
2022-08-26T21:04:59.783Z,24.12
2022-08-26T21:07:27.603Z,24.20
2022-08-26T21:09:55.756Z,24.18
2022-08-26T21:12:23.140Z,24.23
2022-08-26T21:14:50.945Z,24.27
2022-08-26T21:17:21.530Z,24.28
2022-08-26T21:19:49.020Z,24.31
2022-08-26T21:22:16.821Z,24.31
2022-08-26T21:24:44.320Z,24.29
2022-08-26T21:27:12.048Z,24.32
2022-08-26T21:29:39.795Z,24.31
2022-08-26T21:32:07.362Z,24.32
2022-08-26T21:34:34.832Z,24.32
2022-08-26T21:37:02.680Z,24.32
2022-08-26T21:39:36.321Z,24.28
2022-08-26T21:42:07.680Z,24.22
2022-08-26T21:44:35.063Z,24.22
2022-08-26T21:47:04.800Z,24.13
2022-08-26T21:49:32.535Z,24.12
2022-08-26T21:52:01.611Z,24.09
2022-08-26T21:54:28.991Z,24.05
2022-08-26T21:56:57.504Z,24.01
2022-08-26T21:59:24.959Z,24.04
2022-08-26T22:01:52.429Z,24.02
2022-08-26T22:04:20.892Z,23.96
2022-08-26T22:06:50.864Z,23.88
2022-08-26T22:09:25.099Z,23.86
2022-08-26T22:11:53.825Z,23.83
2022-08-26T22:14:22.307Z,23.80
2022-08-26T22:16:50.189Z,23.75
2022-08-26T22:19:23.568Z,23.74
2022-08-26T22:21:53.372Z,23.74
2022-08-26T22:24:23.175Z,23.62
2022-08-26T22:26:51.771Z,23.57
2022-08-26T22:29:20.109Z,23.50
2022-08-26T22:31:47.993Z,23.39
2022-08-26T22:34:17.352Z,23.30
2022-08-26T22:36:47.561Z,23.18
2022-08-26T22:39:21.028Z,22.95
2022-08-26T22:41:48.741Z,22.77
2022-08-26T22:44:18.042Z,22.85
2022-08-26T22:46:46.608Z,22.74
2022-08-26T22:49:18.325Z,22.56
2022-08-26T22:51:46.546Z,22.52
2022-08-26T22:54:15.550Z,22.54
2022-08-26T22:56:44.849Z,22.50
2022-08-26T22:59:13.191Z,22.33
2022-08-26T23:01:42.904Z,22.31
2022-08-26T23:04:11.657Z,22.17
2022-08-26T23:06:41.800Z,22.07
2022-08-26T23:09:10.494Z,21.93
2022-08-26T23:11:42.184Z,21.80
2022-08-26T23:14:10.801Z,21.73
2022-08-26T23:16:43.734Z,21.77
2022-08-26T23:19:12.996Z,21.84
2022-08-26T23:21:40.935Z,21.67
2022-08-26T23:24:09.239Z,21.52
2022-08-26T23:26:38.556Z,21.03
2022-08-26T23:29:08.384Z,20.78
2022-08-26T23:31:37.751Z,20.87
2022-08-26T23:34:24.786Z,20.96
2022-08-26T23:36:53.181Z,20.94
2022-08-26T23:39:21.647Z,20.92
2022-08-26T23:41:49.152Z,20.85
2022-08-26T23:44:16.690Z,20.81
2022-08-26T23:46:44.527Z,20.75
2022-08-26T23:49:12.187Z,20.74
2022-08-26T23:51:57.937Z,20.71
2022-08-26T23:54:25.775Z,20.61
2022-08-26T23:56:53.329Z,20.58
2022-08-26T23:59:20.800Z,20.54
